createdAt,value
2023-01-30T00:01:43.824Z,2.60
2023-01-30T00:06:43.593Z,2.60
2023-01-30T00:11:42.665Z,2.60
2023-01-30T00:16:42.213Z,2.60
2023-01-30T00:21:40.480Z,2.60
2023-01-30T00:26:40.153Z,2.60
2023-01-30T00:31:40.937Z,2.60
2023-01-30T00:36:39.226Z,2.60
2023-01-30T00:41:51.364Z,2.60
2023-01-30T00:47:09.740Z,2.60
2023-01-30T00:52:08.126Z,2.50
2023-01-30T00:57:06.407Z,2.50
2023-01-30T01:02:06.096Z,2.50
2023-01-30T01:07:05.247Z,2.60
2023-01-30T01:12:03.708Z,2.50
2023-01-30T01:17:02.092Z,2.60
2023-01-30T01:22:01.715Z,2.40
2023-01-30T01:27:00.203Z,2.40
2023-01-30T01:31:59.747Z,2.40
2023-01-30T01:36:58.025Z,2.40
2023-01-30T01:41:57.616Z,2.40
2023-01-30T01:46:59.709Z,2.40
2023-01-30T01:52:00.881Z,2.40
2023-01-30T01:57:05.127Z,2.40
2023-01-30T02:02:09.008Z,2.40
2023-01-30T02:07:08.044Z,2.40
2023-01-30T02:12:08.332Z,2.50
2023-01-30T02:17:06.741Z,2.60
2023-01-30T02:22:40.348Z,2.50
2023-01-30T02:28:18.911Z,2.40
2023-01-30T02:33:26.883Z,2.40
2023-01-30T02:38:36.171Z,2.30
2023-01-30T02:43:40.846Z,2.40
2023-01-30T02:48:44.845Z,2.50
2023-01-30T02:53:43.419Z,2.50
2023-01-30T02:58:46.896Z,2.40
2023-01-30T03:04:18.516Z,2.30
2023-01-30T03:09:26.680Z,2.20
2023-01-30T03:14:29.338Z,2.20
2023-01-30T03:19:30.730Z,2.30
2023-01-30T03:24:31.134Z,2.30
2023-01-30T03:29:29.467Z,2.50
2023-01-30T03:34:29.202Z,2.40
2023-01-30T03:39:28.217Z,2.50
2023-01-30T03:44:27.409Z,2.60
2023-01-30T03:49:26.237Z,2.60
2023-01-30T03:54:25.899Z,2.70
2023-01-30T03:59:25.629Z,2.80
2023-01-30T04:04:32.398Z,2.80
2023-01-30T04:09:33.070Z,2.90
2023-01-30T04:14:32.823Z,2.90
2023-01-30T04:20:10.470Z,2.90
2023-01-30T04:25:16.408Z,3.00
2023-01-30T04:30:15.724Z,2.90
2023-01-30T04:35:15.092Z,3.00
2023-01-30T04:40:15.297Z,3.00
2023-01-30T04:45:13.763Z,3.10
2023-01-30T04:50:12.729Z,3.20
2023-01-30T04:55:11.218Z,3.30
2023-01-30T05:00:12.478Z,3.30
2023-01-30T05:05:17.592Z,3.30
2023-01-30T05:10:17.263Z,3.30
2023-01-30T05:15:17.277Z,3.20
2023-01-30T05:20:15.893Z,3.20
2023-01-30T05:25:14.133Z,3.20
2023-01-30T05:30:13.081Z,3.00
2023-01-30T05:35:12.806Z,3.00
2023-01-30T05:40:12.426Z,2.90
2023-01-30T05:45:11.347Z,2.90
2023-01-30T05:50:12.741Z,2.90
2023-01-30T05:55:11.569Z,3.00
2023-01-30T06:00:11.721Z,3.00
2023-01-30T06:05:14.233Z,3.00
2023-01-30T06:10:13.067Z,3.10
2023-01-30T06:15:12.971Z,3.10
2023-01-30T06:20:14.385Z,3.00
2023-01-30T06:25:12.924Z,3.10
2023-01-30T06:30:12.245Z,3.20
2023-01-30T06:35:11.137Z,3.30
2023-01-30T06:40:12.544Z,3.30
2023-01-30T06:45:11.896Z,3.30
2023-01-30T06:50:10.891Z,3.40
2023-01-30T06:55:12.447Z,3.50
2023-01-30T07:00:13.349Z,3.60
2023-01-30T07:05:11.793Z,3.70
2023-01-30T07:10:13.183Z,3.80
2023-01-30T07:15:11.851Z,3.90
2023-01-30T07:20:11.550Z,3.90
2023-01-30T07:25:11.631Z,3.90
2023-01-30T07:30:11.202Z,4.00
2023-01-30T07:35:10.131Z,4.10
2023-01-30T07:40:10.463Z,4.20
2023-01-30T07:45:11.535Z,4.30
2023-01-30T07:50:10.860Z,4.40
2023-01-30T07:55:09.602Z,4.50
2023-01-30T08:00:12.303Z,4.50
2023-01-30T08:05:11.166Z,4.50
2023-01-30T08:10:12.074Z,4.60
2023-01-30T08:15:12.676Z,4.80
2023-01-30T08:20:12.322Z,4.90
2023-01-30T08:25:10.922Z,5.10
2023-01-30T08:30:12.191Z,5.20
2023-01-30T08:35:11.650Z,5.20
2023-01-30T08:40:11.499Z,5.30
2023-01-30T08:45:12.085Z,5.30
2023-01-30T08:50:11.740Z,5.30
2023-01-30T08:55:10.543Z,5.30
2023-01-30T09:00:11.874Z,5.30
2023-01-30T09:05:11.947Z,5.30
2023-01-30T09:10:11.410Z,5.40
2023-01-30T09:15:12.330Z,5.40
2023-01-30T09:20:12.281Z,5.50
2023-01-30T09:25:11.023Z,5.40
2023-01-30T09:30:10.804Z,5.60
2023-01-30T09:35:10.882Z,5.80
2023-01-30T09:40:15.480Z,5.80
2023-01-30T09:45:49.148Z,5.80
2023-01-30T09:51:17.143Z,5.80
2023-01-30T09:56:15.632Z,6.00
2023-01-30T10:01:22.232Z,6.30
2023-01-30T10:06:22.885Z,6.30
2023-01-30T10:11:36.215Z,6.30
2023-01-30T10:16:40.635Z,6.30
2023-01-30T10:21:47.820Z,6.20
2023-01-30T10:26:46.963Z,6.50
2023-01-30T10:31:48.869Z,7.10
2023-01-30T10:36:55.871Z,8.90
2023-01-30T10:42:00.155Z,10.60
2023-01-30T10:47:12.718Z,10.10
2023-01-30T10:52:27.341Z,8.50
2023-01-30T10:57:33.515Z,7.50
2023-01-30T11:02:41.242Z,7.20
2023-01-30T11:07:41.939Z,6.90
2023-01-30T11:12:39.999Z,6.70
2023-01-30T11:17:42.079Z,6.60
2023-01-30T11:22:47.385Z,6.50
2023-01-30T11:27:52.983Z,6.50
2023-01-30T11:32:52.254Z,6.70
2023-01-30T11:37:53.591Z,6.80
2023-01-30T11:42:53.690Z,6.80
2023-01-30T11:48:00.408Z,6.80
2023-01-30T11:53:07.509Z,6.90
2023-01-30T11:58:09.263Z,7.50
2023-01-30T12:03:13.143Z,7.90
2023-01-30T12:08:40.523Z,7.90
2023-01-30T12:13:42.044Z,8.10
2023-01-30T12:18:47.491Z,8.90
2023-01-30T12:23:53.973Z,9.70
2023-01-30T12:28:57.924Z,10.70
2023-01-30T12:33:56.781Z,9.60
2023-01-30T12:39:07.059Z,8.50
2023-01-30T12:44:27.365Z,7.90
2023-01-30T12:49:57.073Z,7.60
2023-01-30T12:55:03.673Z,7.50
2023-01-30T13:00:18.936Z,7.50
2023-01-30T13:05:23.877Z,7.30
2023-01-30T13:10:32.011Z,7.20
2023-01-30T13:15:39.184Z,7.50
2023-01-30T13:20:55.777Z,7.50
2023-01-30T13:26:02.343Z,7.30
2023-01-30T13:31:03.116Z,7.10
2023-01-30T13:36:10.028Z,7.10
2023-01-30T13:41:14.192Z,7.00
2023-01-30T13:46:20.461Z,7.10
2023-01-30T13:51:27.719Z,7.10
2023-01-30T13:56:43.001Z,7.00
2023-01-30T14:02:17.496Z,6.80
2023-01-30T14:07:19.805Z,6.50
2023-01-30T14:12:24.013Z,6.40
2023-01-30T14:17:22.284Z,6.10
2023-01-30T14:22:28.858Z,5.90
2023-01-30T14:27:32.206Z,5.80
2023-01-30T14:32:55.653Z,5.50
2023-01-30T14:38:12.516Z,5.20
2023-01-30T14:43:52.342Z,4.80
2023-01-30T14:48:55.949Z,4.70
2023-01-30T14:53:57.911Z,4.70
2023-01-30T14:59:03.551Z,4.80
2023-01-30T15:04:02.179Z,4.80
2023-01-30T15:09:00.479Z,4.80
2023-01-30T15:14:12.081Z,4.90
2023-01-30T15:19:23.295Z,5.00
2023-01-30T15:24:54.627Z,5.00
2023-01-30T15:30:17.566Z,5.00
2023-01-30T15:35:29.696Z,5.10
2023-01-30T15:40:29.915Z,5.10
2023-01-30T15:45:43.591Z,5.00
2023-01-30T15:50:48.400Z,5.10
2023-01-30T15:55:47.624Z,5.10
2023-01-30T16:00:49.701Z,5.10
2023-01-30T16:05:49.684Z,5.20
2023-01-30T16:10:48.074Z,5.30
2023-01-30T16:15:54.225Z,5.30
2023-01-30T16:21:01.927Z,5.30
2023-01-30T16:26:02.049Z,5.40
2023-01-30T16:31:04.778Z,5.40
2023-01-30T16:36:04.196Z,5.50
2023-01-30T16:41:02.493Z,5.40
2023-01-30T16:46:41.157Z,5.30
2023-01-30T16:51:39.560Z,5.30
2023-01-30T16:56:38.548Z,5.30
2023-01-30T17:01:42.434Z,5.30
2023-01-30T17:06:43.159Z,5.30
2023-01-30T17:11:42.814Z,5.40
2023-01-30T17:16:43.504Z,5.40
2023-01-30T17:21:48.932Z,5.20
2023-01-30T17:26:50.399Z,5.20
2023-01-30T17:31:51.714Z,5.20
2023-01-30T17:36:51.521Z,5.20
2023-01-30T17:41:50.670Z,5.30
2023-01-30T17:46:51.308Z,5.30
2023-01-30T17:51:50.631Z,5.40
2023-01-30T17:56:54.672Z,5.50
2023-01-30T18:01:54.810Z,5.60
2023-01-30T18:06:56.954Z,5.70
2023-01-30T18:11:55.234Z,5.70
2023-01-30T18:17:00.170Z,5.80
2023-01-30T18:21:58.651Z,5.90
2023-01-30T18:26:56.948Z,6.00
2023-01-30T18:31:56.708Z,6.10
2023-01-30T18:36:55.067Z,6.10
2023-01-30T18:41:53.307Z,6.10
2023-01-30T18:46:51.654Z,6.10
2023-01-30T18:51:51.369Z,6.20
2023-01-30T18:56:49.676Z,6.20
2023-01-30T19:01:47.976Z,6.30
2023-01-30T19:06:46.421Z,6.30
2023-01-30T19:12:03.795Z,6.30
2023-01-30T19:17:02.131Z,6.30
2023-01-30T19:22:00.410Z,6.30
2023-01-30T19:27:00.004Z,6.30
2023-01-30T19:31:58.417Z,6.20
2023-01-30T19:36:56.732Z,6.10
2023-01-30T19:41:54.969Z,6.10
2023-01-30T19:46:55.852Z,6.10
2023-01-30T19:51:53.924Z,6.20
2023-01-30T19:56:52.548Z,6.00
2023-01-30T20:01:50.860Z,6.00
2023-01-30T20:06:50.629Z,6.00
2023-01-30T20:11:49.178Z,5.90
2023-01-30T20:16:47.457Z,5.90
2023-01-30T20:21:46.023Z,5.80
2023-01-30T20:26:48.429Z,5.80
2023-01-30T20:31:47.228Z,5.80
2023-01-30T20:36:45.588Z,5.90
2023-01-30T20:41:45.552Z,5.80
2023-01-30T20:46:45.946Z,5.80
2023-01-30T20:51:44.564Z,5.80
2023-01-30T20:56:45.763Z,5.80
2023-01-30T21:01:44.789Z,5.80
2023-01-30T21:06:46.041Z,5.80
2023-01-30T21:11:46.227Z,5.80
2023-01-30T21:16:44.978Z,5.90
2023-01-30T21:21:47.585Z,5.90
2023-01-30T21:26:48.998Z,5.90
2023-01-30T21:31:48.119Z,5.90
2023-01-30T21:37:06.904Z,5.80
2023-01-30T21:42:24.114Z,5.70
2023-01-30T21:47:22.395Z,5.60
2023-01-30T21:52:20.610Z,5.50
2023-01-30T21:57:20.220Z,5.50
2023-01-30T22:02:18.673Z,5.50
2023-01-30T22:07:16.919Z,5.40
2023-01-30T22:12:15.191Z,5.30
2023-01-30T22:17:14.833Z,5.20
2023-01-30T22:22:13.123Z,5.10
2023-01-30T22:27:11.412Z,5.00
2023-01-30T22:32:09.871Z,5.00
2023-01-30T22:37:09.522Z,5.00
2023-01-30T22:42:08.888Z,4.90
2023-01-30T22:47:07.203Z,5.00
2023-01-30T22:52:05.494Z,4.90
2023-01-30T22:57:05.196Z,4.90
2023-01-30T23:02:04.512Z,4.90
2023-01-30T23:07:02.874Z,4.80
2023-01-30T23:12:18.481Z,4.80
2023-01-30T23:17:35.538Z,4.80
2023-01-30T23:22:33.815Z,4.80
2023-01-30T23:27:32.044Z,4.80
2023-01-30T23:32:31.708Z,4.80
2023-01-30T23:37:43.865Z,4.70
2023-01-30T23:42:42.250Z,4.80
2023-01-30T23:47:41.854Z,4.80
2023-01-30T23:52:40.083Z,4.70
2023-01-30T23:57:38.610Z,4.70
